createdAt,value
2022-08-20T00:00:37.000Z,0
2022-08-20T00:01:53.000Z,0
2022-08-20T00:03:09.000Z,0
2022-08-20T00:04:26.000Z,0
2022-08-20T00:05:41.000Z,0
2022-08-20T00:17:07.000Z,0
2022-08-20T00:24:43.000Z,0
2022-08-20T00:25:58.000Z,0
2022-08-20T00:27:13.000Z,0
2022-08-20T00:28:29.000Z,0
2022-08-20T00:29:46.000Z,0
2022-08-20T00:31:02.000Z,0
2022-08-20T00:32:18.000Z,0
2022-08-20T00:33:34.000Z,0
2022-08-20T00:34:50.000Z,0
2022-08-20T00:36:07.000Z,0
2022-08-20T00:37:23.000Z,0
2022-08-20T00:38:39.000Z,0
2022-08-20T00:39:54.000Z,0
2022-08-20T00:41:09.000Z,0
2022-08-20T00:42:26.000Z,0
2022-08-20T00:43:42.000Z,0
2022-08-20T00:44:58.000Z,0
2022-08-20T00:46:14.000Z,0
2022-08-20T00:47:30.000Z,0
2022-08-20T00:48:47.000Z,0
2022-08-20T00:50:03.000Z,0
2022-08-20T00:51:19.000Z,0
2022-08-20T00:52:35.000Z,0
2022-08-20T00:53:50.000Z,0
2022-08-20T00:55:06.000Z,0
2022-08-20T00:56:22.000Z,0
2022-08-20T00:57:38.000Z,0
2022-08-20T00:58:54.000Z,0
2022-08-20T01:00:10.000Z,0
2022-08-20T01:01:27.000Z,0
2022-08-20T01:02:43.000Z,0
2022-08-20T01:03:59.000Z,0
2022-08-20T01:05:15.000Z,0
2022-08-20T01:06:31.000Z,0
2022-08-20T01:07:48.000Z,0
2022-08-20T01:09:04.000Z,0
2022-08-20T01:10:20.000Z,0
2022-08-20T01:11:35.000Z,0
2022-08-20T01:12:51.000Z,0
2022-08-20T01:14:08.000Z,0
2022-08-20T01:15:24.000Z,0
2022-08-20T01:16:40.000Z,0
2022-08-20T01:17:56.000Z,0
2022-08-20T01:19:12.000Z,0
2022-08-20T01:20:28.000Z,0
2022-08-20T01:21:44.000Z,0
2022-08-20T01:22:59.000Z,0
2022-08-20T01:24:15.000Z,0
2022-08-20T01:25:31.000Z,0
2022-08-20T01:26:47.000Z,0
2022-08-20T01:28:02.000Z,0
2022-08-20T01:29:18.000Z,0
2022-08-20T01:30:34.000Z,0
2022-08-20T01:31:50.000Z,0
2022-08-20T01:33:07.000Z,0
2022-08-20T01:34:23.000Z,0
2022-08-20T01:35:39.000Z,0
2022-08-20T01:36:54.000Z,0
2022-08-20T01:38:10.000Z,0
2022-08-20T01:39:27.000Z,0
2022-08-20T01:40:43.000Z,0
2022-08-20T01:41:59.000Z,0
2022-08-20T01:43:15.000Z,0
2022-08-20T01:44:31.000Z,0
2022-08-20T01:45:48.000Z,0
2022-08-20T01:47:04.000Z,0
2022-08-20T01:49:36.000Z,0
2022-08-20T01:52:09.000Z,0
2022-08-20T01:53:24.000Z,0
2022-08-20T01:54:39.000Z,0
2022-08-20T01:55:55.000Z,0
2022-08-20T01:57:11.000Z,0
2022-08-20T01:58:28.000Z,0
2022-08-20T01:59:44.000Z,0
2022-08-20T02:01:00.000Z,0
2022-08-20T02:02:16.000Z,0
2022-08-20T02:03:32.000Z,0
2022-08-20T02:04:49.000Z,0
2022-08-20T02:06:05.000Z,0
2022-08-20T02:07:20.000Z,0
2022-08-20T02:08:35.000Z,0
2022-08-20T02:09:51.000Z,0
2022-08-20T02:11:08.000Z,0
2022-08-20T02:12:24.000Z,0
2022-08-20T02:13:40.000Z,0
2022-08-20T02:14:56.000Z,0
2022-08-20T02:16:12.000Z,0
2022-08-20T02:17:29.000Z,0
2022-08-20T02:18:45.000Z,0
2022-08-20T02:20:01.000Z,0
2022-08-20T02:21:17.000Z,0
2022-08-20T02:22:33.000Z,0
2022-08-20T02:23:50.000Z,0
2022-08-20T02:25:05.000Z,0
2022-08-20T02:26:21.000Z,0
2022-08-20T02:27:37.000Z,0
2022-08-20T02:28:53.000Z,0
2022-08-20T02:30:10.000Z,0
2022-08-20T02:31:26.000Z,0
2022-08-20T02:32:42.000Z,0
2022-08-20T02:33:57.000Z,0
2022-08-20T02:35:12.000Z,0
2022-08-20T02:36:28.000Z,0
2022-08-20T02:37:43.000Z,0
2022-08-20T02:38:59.000Z,0
2022-08-20T02:40:15.000Z,0
2022-08-20T02:41:31.000Z,0
2022-08-20T02:42:48.000Z,0
2022-08-20T02:44:04.000Z,0
2022-08-20T02:45:20.000Z,0
2022-08-20T02:46:36.000Z,0
2022-08-20T02:47:52.000Z,0
2022-08-20T02:49:09.000Z,0
2022-08-20T02:50:25.000Z,0
2022-08-20T02:52:57.000Z,0
2022-08-20T02:54:12.000Z,0
2022-08-20T02:55:29.000Z,0
2022-08-20T02:56:45.000Z,0
2022-08-20T02:58:01.000Z,0
2022-08-20T02:59:17.000Z,0
2022-08-20T03:00:33.000Z,0
2022-08-20T03:01:50.000Z,0
2022-08-20T03:03:06.000Z,0
2022-08-20T03:04:21.000Z,0
2022-08-20T03:05:36.000Z,0
2022-08-20T03:06:51.000Z,0
2022-08-20T03:08:07.000Z,0
2022-08-20T03:09:23.000Z,0
2022-08-20T03:10:39.000Z,0
2022-08-20T03:11:55.000Z,0
2022-08-20T03:13:11.000Z,0
2022-08-20T03:14:28.000Z,0
2022-08-20T03:15:44.000Z,0
2022-08-20T03:17:00.000Z,0
2022-08-20T03:18:16.000Z,0
2022-08-20T03:19:32.000Z,0
2022-08-20T03:20:49.000Z,0
2022-08-20T03:22:05.000Z,0
2022-08-20T03:23:21.000Z,0
2022-08-20T03:24:36.000Z,0
2022-08-20T03:25:52.000Z,0
2022-08-20T03:27:09.000Z,0
2022-08-20T03:28:25.000Z,0
2022-08-20T03:30:57.000Z,0
2022-08-20T03:32:13.000Z,0
2022-08-20T03:33:29.000Z,0
2022-08-20T03:34:45.000Z,0
2022-08-20T03:36:00.000Z,0
2022-08-20T03:37:16.000Z,0
2022-08-20T03:38:31.000Z,0
2022-08-20T03:39:47.000Z,0
2022-08-20T03:41:03.000Z,0
2022-08-20T03:43:35.000Z,0
2022-08-20T03:44:51.000Z,0
2022-08-20T03:46:08.000Z,0
2022-08-20T03:47:24.000Z,0
2022-08-20T03:48:40.000Z,0
2022-08-20T03:49:56.000Z,0
2022-08-20T03:51:12.000Z,0
2022-08-20T03:52:29.000Z,0
2022-08-20T03:53:45.000Z,0
2022-08-20T03:56:17.000Z,0
2022-08-20T03:57:32.000Z,0
2022-08-20T03:58:48.000Z,0
2022-08-20T04:00:04.000Z,0
2022-08-20T04:01:20.000Z,0
2022-08-20T04:02:36.000Z,4
2022-08-20T04:03:52.000Z,4
2022-08-20T04:05:09.000Z,4
2022-08-20T04:06:25.000Z,8
2022-08-20T04:07:41.000Z,8
2022-08-20T04:08:57.000Z,8
2022-08-20T04:10:13.000Z,8
2022-08-20T04:11:29.000Z,4
2022-08-20T04:12:44.000Z,4
2022-08-20T04:14:00.000Z,8
2022-08-20T04:15:16.000Z,8
2022-08-20T04:16:32.000Z,8
2022-08-20T04:17:49.000Z,16
2022-08-20T04:19:05.000Z,20
2022-08-20T04:20:21.000Z,24
2022-08-20T04:21:37.000Z,32
2022-08-20T04:22:53.000Z,40
2022-08-20T04:24:09.000Z,44
2022-08-20T04:25:26.000Z,52
2022-08-20T04:26:42.000Z,64
2022-08-20T04:27:58.000Z,80
2022-08-20T04:29:13.000Z,88
2022-08-20T04:30:29.000Z,96
2022-08-20T04:31:46.000Z,100
2022-08-20T04:34:18.000Z,88
2022-08-20T04:35:34.000Z,76
2022-08-20T04:36:50.000Z,72
2022-08-20T04:38:07.000Z,76
2022-08-20T04:39:22.000Z,80
2022-08-20T04:40:37.000Z,80
2022-08-20T04:41:52.000Z,84
2022-08-20T04:43:08.000Z,92
2022-08-20T04:44:24.000Z,108
2022-08-20T04:45:40.000Z,120
2022-08-20T04:46:56.000Z,128
2022-08-20T04:48:12.000Z,132
2022-08-20T04:49:28.000Z,132
2022-08-20T04:50:45.000Z,124
2022-08-20T04:52:01.000Z,124
2022-08-20T04:53:17.000Z,124
2022-08-20T04:54:33.000Z,132
2022-08-20T04:55:49.000Z,140
2022-08-20T04:57:06.000Z,144
2022-08-20T04:58:22.000Z,152
2022-08-20T04:59:37.000Z,192
2022-08-20T05:00:53.000Z,200
2022-08-20T05:02:09.000Z,192
2022-08-20T05:03:26.000Z,236
2022-08-20T05:04:42.000Z,204
2022-08-20T05:05:58.000Z,184
2022-08-20T05:07:14.000Z,192
2022-08-20T05:08:30.000Z,224
2022-08-20T05:09:46.000Z,264
2022-08-20T05:11:01.000Z,284
2022-08-20T05:12:17.000Z,324
2022-08-20T05:13:33.000Z,348
2022-08-20T05:14:48.000Z,376
2022-08-20T05:16:04.000Z,392
2022-08-20T05:17:20.000Z,400
2022-08-20T05:18:36.000Z,432
2022-08-20T05:19:52.000Z,440
2022-08-20T05:21:08.000Z,472
2022-08-20T05:22:25.000Z,448
2022-08-20T05:23:41.000Z,360
2022-08-20T05:24:57.000Z,304
2022-08-20T05:26:13.000Z,280
2022-08-20T05:27:29.000Z,260
2022-08-20T05:28:46.000Z,240
2022-08-20T05:30:02.000Z,224
2022-08-20T05:31:18.000Z,224
2022-08-20T05:32:33.000Z,236
2022-08-20T05:33:49.000Z,268
2022-08-20T05:35:06.000Z,284
2022-08-20T05:37:38.000Z,348
2022-08-20T05:38:54.000Z,384
2022-08-20T05:40:10.000Z,432
2022-08-20T05:41:27.000Z,488
2022-08-20T05:42:42.000Z,548
2022-08-20T05:43:57.000Z,568
2022-08-20T05:45:12.000Z,568
2022-08-20T05:46:27.000Z,564
2022-08-20T05:47:44.000Z,560
2022-08-20T05:49:00.000Z,584
2022-08-20T05:50:16.000Z,604
2022-08-20T05:51:32.000Z,628
2022-08-20T05:52:47.000Z,660
2022-08-20T05:54:04.000Z,724
2022-08-20T05:55:20.000Z,752
2022-08-20T05:56:36.000Z,832
2022-08-20T05:57:52.000Z,888
2022-08-20T05:59:08.000Z,1072
2022-08-20T06:00:25.000Z,1448
2022-08-20T06:01:41.000Z,1936
2022-08-20T06:02:57.000Z,1856
2022-08-20T06:04:13.000Z,1416
2022-08-20T06:05:29.000Z,1300
2022-08-20T06:06:46.000Z,1364
2022-08-20T06:08:02.000Z,1320
2022-08-20T06:09:17.000Z,1364
2022-08-20T06:10:33.000Z,1448
2022-08-20T06:11:48.000Z,1404
2022-08-20T06:13:04.000Z,1276
2022-08-20T06:14:20.000Z,1300
2022-08-20T06:15:36.000Z,1456
2022-08-20T06:16:51.000Z,1456
2022-08-20T06:19:23.000Z,1420
2022-08-20T06:20:39.000Z,1328
2022-08-20T06:21:55.000Z,1412
2022-08-20T06:23:11.000Z,1544
2022-08-20T06:24:27.000Z,1736
2022-08-20T06:25:44.000Z,1780
2022-08-20T06:27:00.000Z,1764
2022-08-20T06:28:16.000Z,1868
2022-08-20T06:29:32.000Z,1912
2022-08-20T06:30:48.000Z,1888
2022-08-20T06:32:05.000Z,1604
2022-08-20T06:33:21.000Z,1516
2022-08-20T06:34:36.000Z,1504
2022-08-20T06:35:52.000Z,1504
2022-08-20T06:37:08.000Z,1604
2022-08-20T06:38:25.000Z,1684
2022-08-20T06:39:41.000Z,1852
2022-08-20T06:40:57.000Z,1872
2022-08-20T06:42:13.000Z,1968
2022-08-20T06:43:29.000Z,2076
2022-08-20T06:44:45.000Z,2272
2022-08-20T06:46:00.000Z,2484
2022-08-20T06:47:15.000Z,2664
2022-08-20T06:48:30.000Z,2848
2022-08-20T06:49:46.000Z,2784
2022-08-20T06:51:03.000Z,2764
2022-08-20T06:52:19.000Z,2796
2022-08-20T06:53:35.000Z,3096
2022-08-20T06:54:51.000Z,3476
2022-08-20T06:56:07.000Z,3744
2022-08-20T06:57:24.000Z,3992
2022-08-20T06:58:40.000Z,4156
2022-08-20T06:59:56.000Z,4492
2022-08-20T07:01:12.000Z,4628
2022-08-20T07:02:28.000Z,4944
2022-08-20T07:03:45.000Z,6100
2022-08-20T07:06:16.000Z,44128
2022-08-20T07:07:32.000Z,72608
2022-08-20T07:08:48.000Z,88160
2022-08-20T07:10:05.000Z,88512
2022-08-20T07:11:21.000Z,84320
2022-08-20T07:12:37.000Z,23168
2022-08-20T07:13:53.000Z,76416
2022-08-20T07:15:08.000Z,33600
2022-08-20T07:16:24.000Z,17824
2022-08-20T07:18:55.000Z,29664
2022-08-20T07:20:10.000Z,18880
2022-08-20T07:21:26.000Z,21792
2022-08-20T07:22:42.000Z,28672
2022-08-20T07:23:58.000Z,16248
2022-08-20T07:25:14.000Z,27136
2022-08-20T07:26:30.000Z,18528
2022-08-20T07:27:46.000Z,77024
2022-08-20T07:29:03.000Z,24320
2022-08-20T07:31:35.000Z,21376
2022-08-20T07:32:51.000Z,22368
2022-08-20T07:34:07.000Z,18656
2022-08-20T07:35:24.000Z,98272
2022-08-20T07:36:40.000Z,24672
2022-08-20T07:37:55.000Z,14628
2022-08-20T07:39:11.000Z,12312
2022-08-20T07:40:27.000Z,12624
2022-08-20T07:41:44.000Z,14980
2022-08-20T07:43:00.000Z,16796
2022-08-20T07:44:16.000Z,14240
2022-08-20T07:45:32.000Z,12788
2022-08-20T07:46:48.000Z,12508
2022-08-20T07:48:04.000Z,14912
2022-08-20T07:49:19.000Z,14220
2022-08-20T07:50:35.000Z,13164
2022-08-20T07:51:50.000Z,11700
2022-08-20T07:53:06.000Z,54912
2022-08-20T07:54:22.000Z,99456
2022-08-20T07:56:54.000Z,98848
2022-08-20T07:58:10.000Z,95040
2022-08-20T07:59:27.000Z,91552
2022-08-20T08:00:43.000Z,90080
2022-08-20T08:01:59.000Z,93952
2022-08-20T08:03:15.000Z,90208
2022-08-20T08:04:31.000Z,97632
2022-08-20T08:05:47.000Z,85920
2022-08-20T08:07:04.000Z,41888
2022-08-20T08:08:20.000Z,78208
2022-08-20T08:09:35.000Z,30208
2022-08-20T08:10:51.000Z,97408
2022-08-20T08:12:07.000Z,18348
2022-08-20T08:13:24.000Z,17764
2022-08-20T08:14:40.000Z,94560
2022-08-20T08:15:56.000Z,65088
2022-08-20T08:17:12.000Z,97984
2022-08-20T08:18:28.000Z,100992
2022-08-20T08:19:45.000Z,97760
2022-08-20T08:21:01.000Z,32544
2022-08-20T08:22:17.000Z,81952
2022-08-20T08:23:33.000Z,25792
2022-08-20T08:24:49.000Z,57248
2022-08-20T08:26:05.000Z,100608
2022-08-20T08:27:21.000Z,98176
2022-08-20T08:28:37.000Z,46816
2022-08-20T08:29:53.000Z,38592
2022-08-20T08:31:09.000Z,78368
2022-08-20T08:32:26.000Z,47808
2022-08-20T08:34:58.000Z,15412
2022-08-20T08:36:14.000Z,15004
2022-08-20T08:37:30.000Z,12268
2022-08-20T08:38:47.000Z,9936
2022-08-20T08:40:03.000Z,87456
2022-08-20T08:41:19.000Z,84288
2022-08-20T08:42:34.000Z,82752
2022-08-20T08:43:49.000Z,84992
2022-08-20T08:45:06.000Z,83040
2022-08-20T08:47:38.000Z,82784
2022-08-20T08:48:53.000Z,84128
2022-08-20T08:50:08.000Z,83584
2022-08-20T08:51:25.000Z,64480
2022-08-20T08:52:41.000Z,17464
2022-08-20T08:53:57.000Z,14220
2022-08-20T08:55:13.000Z,18528
2022-08-20T08:56:29.000Z,49120
2022-08-20T08:57:46.000Z,12136
2022-08-20T08:59:02.000Z,11660
2022-08-20T09:00:18.000Z,17216
2022-08-20T09:01:34.000Z,18656
2022-08-20T09:02:50.000Z,19008
2022-08-20T09:04:07.000Z,19392
2022-08-20T09:05:23.000Z,20128
2022-08-20T09:06:38.000Z,14748
2022-08-20T09:07:54.000Z,11652
2022-08-20T09:09:10.000Z,10872
2022-08-20T09:10:27.000Z,10164
2022-08-20T09:11:43.000Z,9272
2022-08-20T09:12:59.000Z,7916
2022-08-20T09:14:15.000Z,7108
2022-08-20T09:15:31.000Z,6620
2022-08-20T09:16:48.000Z,6552
2022-08-20T09:18:04.000Z,11064
2022-08-20T09:19:19.000Z,14540
2022-08-20T09:20:34.000Z,15100
2022-08-20T09:21:50.000Z,15616
2022-08-20T09:23:07.000Z,16012
2022-08-20T09:25:39.000Z,16416
2022-08-20T09:26:55.000Z,16548
2022-08-20T09:28:11.000Z,13568
2022-08-20T09:29:28.000Z,13552
2022-08-20T09:30:44.000Z,11864
2022-08-20T09:32:00.000Z,11048
2022-08-20T09:33:16.000Z,11184
2022-08-20T09:34:32.000Z,10804
2022-08-20T09:35:49.000Z,10868
2022-08-20T09:37:04.000Z,12116
2022-08-20T09:38:20.000Z,14780
2022-08-20T09:39:36.000Z,12404
2022-08-20T09:40:52.000Z,12800
2022-08-20T09:42:09.000Z,16640
2022-08-20T09:43:25.000Z,17856
2022-08-20T09:44:41.000Z,13976
2022-08-20T09:45:57.000Z,13904
2022-08-20T09:47:13.000Z,18528
2022-08-20T09:48:29.000Z,18400
2022-08-20T09:49:46.000Z,15428
2022-08-20T09:51:02.000Z,15452
2022-08-20T09:52:18.000Z,14700
2022-08-20T09:53:33.000Z,14560
2022-08-20T09:54:49.000Z,16368
2022-08-20T09:56:06.000Z,13284
2022-08-20T09:57:22.000Z,12088
2022-08-20T09:58:38.000Z,10480
2022-08-20T09:59:54.000Z,8788
2022-08-20T10:01:10.000Z,8212
2022-08-20T10:02:27.000Z,8284
2022-08-20T10:03:43.000Z,8520
2022-08-20T10:04:59.000Z,8128
2022-08-20T10:06:15.000Z,7272
2022-08-20T10:07:30.000Z,6220
2022-08-20T10:08:47.000Z,5480
2022-08-20T10:10:03.000Z,5208
2022-08-20T10:11:19.000Z,5328
2022-08-20T10:12:35.000Z,6860
2022-08-20T10:13:51.000Z,9560
2022-08-20T10:15:08.000Z,10844
2022-08-20T10:16:24.000Z,11088
2022-08-20T10:17:40.000Z,11204
2022-08-20T10:18:56.000Z,11420
2022-08-20T10:20:12.000Z,10492
2022-08-20T10:21:29.000Z,12696
2022-08-20T10:22:45.000Z,13496
2022-08-20T10:24:00.000Z,13824
2022-08-20T10:25:16.000Z,13904
2022-08-20T10:26:32.000Z,13832
2022-08-20T10:27:49.000Z,13932
2022-08-20T10:29:05.000Z,13020
2022-08-20T10:30:21.000Z,13684
2022-08-20T10:31:37.000Z,13268
2022-08-20T10:32:53.000Z,11884
2022-08-20T10:34:10.000Z,10968
2022-08-20T10:35:26.000Z,10168
2022-08-20T10:36:42.000Z,10252
2022-08-20T10:37:58.000Z,9992
2022-08-20T10:39:14.000Z,9340
2022-08-20T10:40:30.000Z,8920
2022-08-20T10:41:46.000Z,8964
2022-08-20T10:43:02.000Z,9464
2022-08-20T10:44:18.000Z,9072
2022-08-20T10:45:34.000Z,7992
2022-08-20T10:46:50.000Z,6924
2022-08-20T10:48:07.000Z,6028
2022-08-20T10:49:23.000Z,5496
2022-08-20T10:50:39.000Z,5132
2022-08-20T10:51:55.000Z,4580
2022-08-20T10:53:11.000Z,4428
2022-08-20T10:54:28.000Z,6104
2022-08-20T10:55:44.000Z,6324
2022-08-20T10:56:59.000Z,7460
2022-08-20T10:58:15.000Z,8060
2022-08-20T10:59:31.000Z,8608
2022-08-20T11:00:48.000Z,8952
2022-08-20T11:02:04.000Z,8712
2022-08-20T11:03:20.000Z,8920
2022-08-20T11:04:36.000Z,10448
2022-08-20T11:05:52.000Z,9172
2022-08-20T11:07:09.000Z,9404
2022-08-20T11:08:25.000Z,9008
2022-08-20T11:09:41.000Z,8396
2022-08-20T11:10:57.000Z,7744
2022-08-20T11:12:13.000Z,7472
2022-08-20T11:13:29.000Z,7436
2022-08-20T11:14:44.000Z,7484
2022-08-20T11:16:00.000Z,7388
2022-08-20T11:17:15.000Z,7256
2022-08-20T11:19:47.000Z,7052
2022-08-20T11:21:03.000Z,6956
2022-08-20T11:22:19.000Z,7168
2022-08-20T11:23:35.000Z,7156
2022-08-20T11:24:51.000Z,7156
2022-08-20T11:26:08.000Z,7540
2022-08-20T11:27:24.000Z,9388
2022-08-20T11:28:40.000Z,9772
2022-08-20T11:29:56.000Z,8952
2022-08-20T11:32:29.000Z,8500
2022-08-20T11:33:45.000Z,7716
2022-08-20T11:35:00.000Z,7304
2022-08-20T11:36:16.000Z,7160
2022-08-20T11:37:32.000Z,7048
2022-08-20T11:38:49.000Z,7000
2022-08-20T11:40:05.000Z,6988
2022-08-20T11:41:21.000Z,6580
2022-08-20T11:42:37.000Z,6220
2022-08-20T11:45:10.000Z,6100
2022-08-20T11:46:26.000Z,6092
2022-08-20T11:47:42.000Z,6168
2022-08-20T11:48:58.000Z,6140
2022-08-20T11:50:14.000Z,5784
2022-08-20T11:51:29.000Z,5088
2022-08-20T11:52:46.000Z,4252
2022-08-20T11:54:02.000Z,3608
2022-08-20T11:55:18.000Z,3512
2022-08-20T11:57:50.000Z,4736
2022-08-20T11:59:06.000Z,5340
2022-08-20T12:00:21.000Z,6492
2022-08-20T12:01:37.000Z,7892
2022-08-20T12:02:53.000Z,9160
2022-08-20T12:04:09.000Z,8740
2022-08-20T12:05:26.000Z,8636
2022-08-20T12:06:42.000Z,7784
2022-08-20T12:07:58.000Z,7348
2022-08-20T12:09:14.000Z,6792
2022-08-20T12:10:30.000Z,6476
2022-08-20T12:11:47.000Z,6444
2022-08-20T12:13:02.000Z,6696
2022-08-20T12:14:17.000Z,6824
2022-08-20T12:15:33.000Z,6852
2022-08-20T12:16:49.000Z,6840
2022-08-20T12:18:06.000Z,6768
2022-08-20T12:19:22.000Z,6700
2022-08-20T12:20:38.000Z,6556
2022-08-20T12:21:54.000Z,6484
2022-08-20T12:23:10.000Z,6372
2022-08-20T12:24:27.000Z,6232
2022-08-20T12:25:43.000Z,6096
2022-08-20T12:26:59.000Z,5992
2022-08-20T12:28:15.000Z,6012
2022-08-20T12:29:31.000Z,6176
2022-08-20T12:30:47.000Z,6468
2022-08-20T12:32:03.000Z,6908
2022-08-20T12:33:19.000Z,7452
2022-08-20T12:35:51.000Z,7236
2022-08-20T12:37:08.000Z,6944
2022-08-20T12:38:24.000Z,6604
2022-08-20T12:39:40.000Z,6572
2022-08-20T12:40:55.000Z,6808
2022-08-20T12:42:10.000Z,6972
2022-08-20T12:43:26.000Z,7256
2022-08-20T12:44:41.000Z,7592
2022-08-20T12:45:57.000Z,8052
2022-08-20T12:47:13.000Z,7264
2022-08-20T12:48:29.000Z,7064
2022-08-20T12:49:46.000Z,7004
2022-08-20T12:51:02.000Z,7368
2022-08-20T12:52:18.000Z,8480
2022-08-20T12:53:34.000Z,8640
2022-08-20T12:54:50.000Z,8676
2022-08-20T12:56:07.000Z,8040
2022-08-20T12:57:23.000Z,7812
2022-08-20T12:58:39.000Z,7840
2022-08-20T12:59:55.000Z,8044
2022-08-20T13:01:10.000Z,8104
2022-08-20T13:02:27.000Z,8364
2022-08-20T13:03:43.000Z,8344
2022-08-20T13:04:59.000Z,8476
2022-08-20T13:06:15.000Z,9012
2022-08-20T13:07:31.000Z,9092
2022-08-20T13:08:48.000Z,8708
2022-08-20T13:10:03.000Z,7992
2022-08-20T13:11:18.000Z,7668
2022-08-20T13:12:34.000Z,7376
2022-08-20T13:13:50.000Z,7248
2022-08-20T13:15:06.000Z,7348
2022-08-20T13:16:21.000Z,7560
2022-08-20T13:17:37.000Z,7480
2022-08-20T13:18:53.000Z,7308
2022-08-20T13:20:09.000Z,7024
2022-08-20T13:21:26.000Z,6812
2022-08-20T13:22:42.000Z,5956
2022-08-20T13:23:58.000Z,6636
2022-08-20T13:25:14.000Z,6556
2022-08-20T13:26:30.000Z,6588
2022-08-20T13:27:46.000Z,6524
2022-08-20T13:29:03.000Z,6732
2022-08-20T13:30:19.000Z,6704
2022-08-20T13:31:35.000Z,5744
2022-08-20T13:32:50.000Z,6168
2022-08-20T13:34:06.000Z,5920
2022-08-20T13:35:23.000Z,7068
2022-08-20T13:36:39.000Z,6468
2022-08-20T13:39:11.000Z,6832
2022-08-20T13:40:27.000Z,6668
2022-08-20T13:41:44.000Z,6328
2022-08-20T13:42:59.000Z,5952
2022-08-20T13:44:14.000Z,5592
2022-08-20T13:45:29.000Z,5648
2022-08-20T13:46:44.000Z,5532
2022-08-20T13:48:01.000Z,5500
2022-08-20T13:49:17.000Z,5576
2022-08-20T13:50:33.000Z,5336
2022-08-20T13:51:49.000Z,4980
2022-08-20T13:53:05.000Z,4856
2022-08-20T13:54:22.000Z,5300
2022-08-20T13:55:38.000Z,4500
2022-08-20T13:56:54.000Z,3840
2022-08-20T13:58:10.000Z,3460
2022-08-20T13:59:26.000Z,3292
2022-08-20T14:00:43.000Z,3112
2022-08-20T14:01:59.000Z,2820
2022-08-20T14:03:14.000Z,2792
2022-08-20T14:04:30.000Z,2888
2022-08-20T14:05:46.000Z,2992
2022-08-20T14:07:03.000Z,3164
2022-08-20T14:08:19.000Z,3196
2022-08-20T14:09:35.000Z,3112
2022-08-20T14:10:51.000Z,3508
2022-08-20T14:12:06.000Z,3040
2022-08-20T14:13:22.000Z,3192
2022-08-20T14:14:38.000Z,3492
2022-08-20T14:15:54.000Z,3820
2022-08-20T14:17:10.000Z,3844
2022-08-20T14:18:26.000Z,4152
2022-08-20T14:19:43.000Z,4644
2022-08-20T14:20:59.000Z,4840
2022-08-20T14:22:14.000Z,5276
2022-08-20T14:23:30.000Z,6836
2022-08-20T14:24:46.000Z,6312
2022-08-20T14:26:03.000Z,5872
2022-08-20T14:27:19.000Z,5988
2022-08-20T14:28:35.000Z,6136
2022-08-20T14:29:51.000Z,6112
2022-08-20T14:31:07.000Z,6232
2022-08-20T14:32:24.000Z,6696
2022-08-20T14:33:40.000Z,6740
2022-08-20T14:34:56.000Z,5704
2022-08-20T14:36:12.000Z,6204
2022-08-20T14:37:28.000Z,5948
2022-08-20T14:38:44.000Z,5808
2022-08-20T14:39:59.000Z,5252
2022-08-20T14:42:30.000Z,4712
2022-08-20T14:43:45.000Z,4676
2022-08-20T14:45:01.000Z,4468
2022-08-20T14:46:17.000Z,4392
2022-08-20T14:47:33.000Z,5588
2022-08-20T14:48:49.000Z,4256
2022-08-20T14:50:05.000Z,4464
2022-08-20T14:51:22.000Z,4448
2022-08-20T14:52:38.000Z,4540
2022-08-20T14:53:54.000Z,4764
2022-08-20T14:55:10.000Z,4720
2022-08-20T14:56:26.000Z,4708
2022-08-20T14:57:43.000Z,4796
2022-08-20T14:58:59.000Z,4688
2022-08-20T15:00:15.000Z,4652
2022-08-20T15:01:30.000Z,4636
2022-08-20T15:02:46.000Z,4648
2022-08-20T15:04:03.000Z,4596
2022-08-20T15:05:19.000Z,5048
2022-08-20T15:06:35.000Z,4900
2022-08-20T15:07:51.000Z,5108
2022-08-20T15:09:07.000Z,6164
2022-08-20T15:10:23.000Z,6288
2022-08-20T15:11:38.000Z,6324
2022-08-20T15:12:53.000Z,6536
2022-08-20T15:14:08.000Z,4916
2022-08-20T15:15:24.000Z,4888
2022-08-20T15:16:41.000Z,5600
2022-08-20T15:17:57.000Z,5436
2022-08-20T15:19:13.000Z,6044
2022-08-20T15:20:29.000Z,6104
2022-08-20T15:21:45.000Z,4560
2022-08-20T15:23:01.000Z,4596
2022-08-20T15:24:18.000Z,4776
2022-08-20T15:25:34.000Z,5896
2022-08-20T15:26:50.000Z,5912
2022-08-20T15:28:06.000Z,5900
2022-08-20T15:29:22.000Z,6056
2022-08-20T15:30:38.000Z,6092
2022-08-20T15:31:54.000Z,6116
2022-08-20T15:33:10.000Z,5976
2022-08-20T15:34:26.000Z,5928
2022-08-20T15:35:42.000Z,5784
2022-08-20T15:36:59.000Z,5852
2022-08-20T15:38:15.000Z,4820
2022-08-20T15:39:30.000Z,4432
2022-08-20T15:40:45.000Z,4404
2022-08-20T15:42:00.000Z,4380
2022-08-20T15:43:16.000Z,4316
2022-08-20T15:45:48.000Z,5608
2022-08-20T15:47:04.000Z,4400
2022-08-20T15:48:20.000Z,4676
2022-08-20T15:49:37.000Z,4220
2022-08-20T15:50:53.000Z,4164
2022-08-20T15:52:09.000Z,5780
2022-08-20T15:53:25.000Z,5848
2022-08-20T15:54:41.000Z,5636
2022-08-20T15:55:58.000Z,5708
2022-08-20T15:57:14.000Z,4224
2022-08-20T15:58:30.000Z,4092
2022-08-20T15:59:45.000Z,4016
2022-08-20T16:01:01.000Z,3892
2022-08-20T16:02:18.000Z,3876
2022-08-20T16:03:34.000Z,3760
2022-08-20T16:04:50.000Z,3700
2022-08-20T16:06:06.000Z,3848
2022-08-20T16:07:22.000Z,4996
2022-08-20T16:08:39.000Z,5424
2022-08-20T16:09:54.000Z,5380
2022-08-20T16:11:09.000Z,5448
2022-08-20T16:12:25.000Z,5456
2022-08-20T16:13:40.000Z,5440
2022-08-20T16:14:56.000Z,5388
2022-08-20T16:16:12.000Z,5008
2022-08-20T16:17:28.000Z,4084
2022-08-20T16:18:44.000Z,4392
2022-08-20T16:20:00.000Z,3864
2022-08-20T16:21:17.000Z,4632
2022-08-20T16:23:49.000Z,4116
2022-08-20T16:25:05.000Z,5216
2022-08-20T16:26:21.000Z,4332
2022-08-20T16:27:38.000Z,3496
2022-08-20T16:28:54.000Z,3516
2022-08-20T16:30:10.000Z,3772
2022-08-20T16:31:25.000Z,3816
2022-08-20T16:32:41.000Z,4988
2022-08-20T16:33:58.000Z,4932
2022-08-20T16:35:14.000Z,4920
2022-08-20T16:36:30.000Z,4856
2022-08-20T16:37:46.000Z,4652
2022-08-20T16:39:02.000Z,3740
2022-08-20T16:40:19.000Z,4560
2022-08-20T16:41:34.000Z,4524
2022-08-20T16:42:49.000Z,4512
2022-08-20T16:44:04.000Z,4420
2022-08-20T16:45:19.000Z,4272
2022-08-20T16:46:36.000Z,4204
2022-08-20T16:49:08.000Z,4132
2022-08-20T16:50:24.000Z,4080
2022-08-20T16:51:40.000Z,3272
2022-08-20T16:52:57.000Z,3416
2022-08-20T16:54:13.000Z,3576
2022-08-20T16:55:29.000Z,3808
2022-08-20T16:56:45.000Z,3848
2022-08-20T16:58:01.000Z,3852
2022-08-20T16:59:18.000Z,3820
2022-08-20T17:00:34.000Z,3744
2022-08-20T17:01:49.000Z,3664
2022-08-20T17:03:05.000Z,3524
2022-08-20T17:04:21.000Z,3480
2022-08-20T17:05:37.000Z,3356
2022-08-20T17:06:54.000Z,3364
2022-08-20T17:08:10.000Z,3332
2022-08-20T17:09:26.000Z,3328
2022-08-20T17:10:42.000Z,3268
2022-08-20T17:11:57.000Z,3728
2022-08-20T17:13:13.000Z,4992
2022-08-20T17:14:29.000Z,3804
2022-08-20T17:15:45.000Z,2212
2022-08-20T17:17:00.000Z,2184
2022-08-20T17:18:16.000Z,2472
2022-08-20T17:19:32.000Z,2216
2022-08-20T17:20:48.000Z,2584
2022-08-20T17:22:04.000Z,2096
2022-08-20T17:23:20.000Z,2320
2022-08-20T17:24:36.000Z,2180
2022-08-20T17:27:09.000Z,2376
2022-08-20T17:28:25.000Z,2372
2022-08-20T17:29:41.000Z,2340
2022-08-20T17:30:57.000Z,2304
2022-08-20T17:32:14.000Z,2240
2022-08-20T17:33:30.000Z,2192
2022-08-20T17:34:45.000Z,2140
2022-08-20T17:36:01.000Z,2120
2022-08-20T17:37:17.000Z,2128
2022-08-20T17:38:34.000Z,2124
2022-08-20T17:39:50.000Z,2100
2022-08-20T17:41:06.000Z,2028
2022-08-20T17:42:22.000Z,1928
2022-08-20T17:43:38.000Z,1820
2022-08-20T17:44:54.000Z,1744
2022-08-20T17:46:09.000Z,1664
2022-08-20T17:47:24.000Z,1580
2022-08-20T17:48:39.000Z,1448
2022-08-20T17:49:55.000Z,1348
2022-08-20T17:52:28.000Z,1200
2022-08-20T17:53:44.000Z,1100
2022-08-20T17:55:00.000Z,1060
2022-08-20T17:56:16.000Z,988
2022-08-20T17:57:33.000Z,900
2022-08-20T17:58:49.000Z,832
2022-08-20T18:00:05.000Z,768
2022-08-20T18:01:21.000Z,708
2022-08-20T18:02:37.000Z,664
2022-08-20T18:03:54.000Z,620
2022-08-20T18:05:09.000Z,576